Annandale, Virginia
Current Conditions -  °F | °C
As of 3:58 AM on Sunday 23 Nov 2014 (Local Time) from KDAA Reporting Station
Few Clouds Few Clouds  
Wind Chill: 38°   Ceiling: Unl
Heat Index: 41°   Visibility: 10mi
Dew Point: 18°   Wind: 5mph
Humidity: 41%   Direction: NA
Pressure: 30.22"   Gusts: NA
Location:  38.83°N, 77.19°W
Report Text: KDAA 230858Z AUTO VRB04KT 10SM FEW110 05/M08 A3022 RMK AO2 SLP237 T00481076 58011
Loading
Personal Weather Stations






























Interactive Weather Map New forecast layout! Learn more

10-Day Weather Forecast

Advertisements
Track Severe Weather on mobile